sensor_id;sensor_type;location;lat;lon;timestamp;P1;durP1;ratioP1;P2;durP2;ratioP2
18265;SDS011;9259;48.194;16.322;2023-04-28T00:01:19;6.67;;;2.20;;
18265;SDS011;9259;48.194;16.322;2023-04-28T00:03:47;9.13;;;2.47;;
18265;SDS011;9259;48.194;16.322;2023-04-28T00:06:15;5.87;;;2.40;;
18265;SDS011;9259;48.194;16.322;2023-04-28T00:08:44;5.23;;;2.40;;
18265;SDS011;9259;48.194;16.322;2023-04-28T00:11:12;5.57;;;2.60;;
18265;SDS011;9259;48.194;16.322;2023-04-28T00:13:40;6.13;;;1.87;;
18265;SDS011;9259;48.194;16.322;2023-04-28T00:16:08;5.43;;;2.10;;
18265;SDS011;9259;48.194;16.322;2023-04-28T00:18:35;5.50;;;2.10;;
18265;SDS011;9259;48.194;16.322;2023-04-28T00:21:03;6.63;;;2.20;;
18265;SDS011;9259;48.194;16.322;2023-04-28T00:23:32;9.03;;;3.00;;
18265;SDS011;9259;48.194;16.322;2023-04-28T00:26:01;5.43;;;2.10;;
18265;SDS011;9259;48.194;16.322;2023-04-28T00:28:29;5.73;;;2.33;;
18265;SDS011;9259;48.194;16.322;2023-04-28T00:30:57;9.83;;;2.70;;
18265;SDS011;9259;48.194;16.322;2023-04-28T00:33:25;5.20;;;2.00;;
18265;SDS011;9259;48.194;16.322;2023-04-28T00:35:57;7.97;;;3.43;;
18265;SDS011;9259;48.194;16.322;2023-04-28T00:38:26;5.97;;;2.83;;
18265;SDS011;9259;48.194;16.322;2023-04-28T00:40:54;5.93;;;2.20;;
18265;SDS011;9259;48.194;16.322;2023-04-28T00:43:23;3.57;;;2.03;;
18265;SDS011;9259;48.194;16.322;2023-04-28T00:45:51;4.43;;;2.27;;
18265;SDS011;9259;48.194;16.322;2023-04-28T00:48:19;3.23;;;2.03;;
18265;SDS011;9259;48.194;16.322;2023-04-28T00:50:48;4.97;;;2.27;;
18265;SDS011;9259;48.194;16.322;2023-04-28T00:53:17;6.93;;;2.60;;
18265;SDS011;9259;48.194;16.322;2023-04-28T00:55:45;5.10;;;2.67;;
18265;SDS011;9259;48.194;16.322;2023-04-28T00:58:14;3.77;;;2.30;;
18265;SDS011;9259;48.194;16.322;2023-04-28T01:00:43;4.00;;;2.10;;
18265;SDS011;9259;48.194;16.322;2023-04-28T01:03:11;4.40;;;2.77;;
18265;SDS011;9259;48.194;16.322;2023-04-28T01:05:38;4.57;;;2.63;;
18265;SDS011;9259;48.194;16.322;2023-04-28T01:08:07;5.77;;;2.43;;
18265;SDS011;9259;48.194;16.322;2023-04-28T01:10:35;7.37;;;2.70;;
18265;SDS011;9259;48.194;16.322;2023-04-28T01:13:02;5.20;;;2.53;;
18265;SDS011;9259;48.194;16.322;2023-04-28T01:15:30;6.53;;;2.67;;
18265;SDS011;9259;48.194;16.322;2023-04-28T01:17:59;5.13;;;2.63;;
18265;SDS011;9259;48.194;16.322;2023-04-28T01:20:27;5.23;;;2.87;;
18265;SDS011;9259;48.194;16.322;2023-04-28T01:22:55;9.27;;;2.60;;
18265;SDS011;9259;48.194;16.322;2023-04-28T01:25:25;12.93;;;2.90;;
18265;SDS011;9259;48.194;16.322;2023-04-28T01:27:52;4.47;;;2.30;;
18265;SDS011;9259;48.194;16.322;2023-04-28T01:30:21;5.10;;;1.90;;
18265;SDS011;9259;48.194;16.322;2023-04-28T01:32:49;7.83;;;2.40;;
18265;SDS011;9259;48.194;16.322;2023-04-28T01:35:16;4.67;;;2.63;;
18265;SDS011;9259;48.194;16.322;2023-04-28T01:37:44;9.23;;;2.90;;
18265;SDS011;9259;48.194;16.322;2023-04-28T01:40:12;5.60;;;2.50;;
18265;SDS011;9259;48.194;16.322;2023-04-28T01:42:42;7.30;;;2.77;;
18265;SDS011;9259;48.194;16.322;2023-04-28T01:45:10;6.30;;;2.67;;
18265;SDS011;9259;48.194;16.322;2023-04-28T01:47:38;6.87;;;2.70;;
18265;SDS011;9259;48.194;16.322;2023-04-28T01:50:06;7.60;;;3.17;;
18265;SDS011;9259;48.194;16.322;2023-04-28T01:52:34;5.50;;;2.80;;
18265;SDS011;9259;48.194;16.322;2023-04-28T01:55:02;6.60;;;2.70;;
18265;SDS011;9259;48.194;16.322;2023-04-28T01:57:31;6.30;;;3.33;;
18265;SDS011;9259;48.194;16.322;2023-04-28T02:00:02;7.70;;;2.63;;
18265;SDS011;9259;48.194;16.322;2023-04-28T02:02:31;4.47;;;2.13;;
18265;SDS011;9259;48.194;16.322;2023-04-28T02:04:59;5.43;;;2.63;;
18265;SDS011;9259;48.194;16.322;2023-04-28T02:07:27;7.27;;;2.63;;
18265;SDS011;9259;48.194;16.322;2023-04-28T02:09:55;8.00;;;2.77;;
18265;SDS011;9259;48.194;16.322;2023-04-28T02:12:23;6.43;;;1.93;;
18265;SDS011;9259;48.194;16.322;2023-04-28T02:14:51;4.53;;;2.83;;
18265;SDS011;9259;48.194;16.322;2023-04-28T02:17:20;5.97;;;2.37;;
18265;SDS011;9259;48.194;16.322;2023-04-28T02:19:53;7.67;;;2.70;;
18265;SDS011;9259;48.194;16.322;2023-04-28T02:22:22;6.30;;;2.77;;
18265;SDS011;9259;48.194;16.322;2023-04-28T02:24:50;9.03;;;2.50;;
18265;SDS011;9259;48.194;16.322;2023-04-28T02:27:18;5.17;;;2.47;;
18265;SDS011;9259;48.194;16.322;2023-04-28T02:29:47;6.57;;;2.63;;
18265;SDS011;9259;48.194;16.322;2023-04-28T02:32:15;7.13;;;2.50;;
18265;SDS011;9259;48.194;16.322;2023-04-28T02:34:44;4.87;;;2.73;;
18265;SDS011;9259;48.194;16.322;2023-04-28T02:37:12;6.20;;;2.97;;
18265;SDS011;9259;48.194;16.322;2023-04-28T02:39:40;6.13;;;2.47;;
18265;SDS011;9259;48.194;16.322;2023-04-28T02:42:07;4.37;;;2.10;;
18265;SDS011;9259;48.194;16.322;2023-04-28T02:44:36;6.83;;;2.73;;
18265;SDS011;9259;48.194;16.322;2023-04-28T02:47:03;5.50;;;2.27;;
18265;SDS011;9259;48.194;16.322;2023-04-28T02:49:31;5.30;;;2.57;;
18265;SDS011;9259;48.194;16.322;2023-04-28T02:52:01;4.60;;;2.43;;
18265;SDS011;9259;48.194;16.322;2023-04-28T02:54:28;6.90;;;2.97;;
18265;SDS011;9259;48.194;16.322;2023-04-28T02:56:58;8.07;;;3.50;;
18265;SDS011;9259;48.194;16.322;2023-04-28T02:59:28;10.03;;;2.20;;
18265;SDS011;9259;48.194;16.322;2023-04-28T03:01:57;5.10;;;2.63;;
18265;SDS011;9259;48.194;16.322;2023-04-28T03:04:25;6.63;;;2.60;;
18265;SDS011;9259;48.194;16.322;2023-04-28T03:06:53;6.33;;;2.33;;
18265;SDS011;9259;48.194;16.322;2023-04-28T03:09:22;5.00;;;2.67;;
18265;SDS011;9259;48.194;16.322;2023-04-28T03:11:50;9.77;;;3.27;;
18265;SDS011;9259;48.194;16.322;2023-04-28T03:14:18;8.20;;;2.87;;
18265;SDS011;9259;48.194;16.322;2023-04-28T03:16:46;8.27;;;2.57;;
18265;SDS011;9259;48.194;16.322;2023-04-28T03:19:14;6.67;;;2.60;;
18265;SDS011;9259;48.194;16.322;2023-04-28T03:21:42;7.13;;;2.70;;
18265;SDS011;9259;48.194;16.322;2023-04-28T03:24:09;4.03;;;2.40;;
18265;SDS011;9259;48.194;16.322;2023-04-28T03:26:39;7.27;;;2.63;;
18265;SDS011;9259;48.194;16.322;2023-04-28T03:29:07;8.53;;;2.87;;
18265;SDS011;9259;48.194;16.322;2023-04-28T03:31:35;8.07;;;2.50;;
18265;SDS011;9259;48.194;16.322;2023-04-28T03:34:03;6.23;;;2.90;;
18265;SDS011;9259;48.194;16.322;2023-04-28T03:36:31;4.53;;;2.70;;
18265;SDS011;9259;48.194;16.322;2023-04-28T03:38:59;9.87;;;3.27;;
18265;SDS011;9259;48.194;16.322;2023-04-28T03:41:26;6.40;;;2.77;;
18265;SDS011;9259;48.194;16.322;2023-04-28T03:43:56;6.83;;;3.03;;
18265;SDS011;9259;48.194;16.322;2023-04-28T03:46:24;6.87;;;3.30;;
18265;SDS011;9259;48.194;16.322;2023-04-28T03:48:52;6.50;;;2.83;;
18265;SDS011;9259;48.194;16.322;2023-04-28T03:51:19;9.67;;;2.63;;
18265;SDS011;9259;48.194;16.322;2023-04-28T03:53:47;4.63;;;2.43;;
18265;SDS011;9259;48.194;16.322;2023-04-28T03:56:15;7.13;;;2.97;;
18265;SDS011;9259;48.194;16.322;2023-04-28T03:58:43;9.17;;;3.07;;
18265;SDS011;9259;48.194;16.322;2023-04-28T04:01:12;9.90;;;3.07;;
18265;SDS011;9259;48.194;16.322;2023-04-28T04:03:40;5.60;;;2.60;;
18265;SDS011;9259;48.194;16.322;2023-04-28T04:06:08;8.80;;;3.27;;
18265;SDS011;9259;48.194;16.322;2023-04-28T04:08:36;5.13;;;2.70;;
18265;SDS011;9259;48.194;16.322;2023-04-28T04:11:04;4.57;;;2.77;;
18265;SDS011;9259;48.194;16.322;2023-04-28T04:13:32;6.53;;;2.67;;
18265;SDS011;9259;48.194;16.322;2023-04-28T04:16:01;8.83;;;3.07;;
18265;SDS011;9259;48.194;16.322;2023-04-28T04:18:30;5.60;;;2.87;;
18265;SDS011;9259;48.194;16.322;2023-04-28T04:20:58;8.63;;;3.10;;
18265;SDS011;9259;48.194;16.322;2023-04-28T04:23:26;5.60;;;3.00;;
18265;SDS011;9259;48.194;16.322;2023-04-28T04:25:53;7.13;;;3.07;;
18265;SDS011;9259;48.194;16.322;2023-04-28T04:28:21;6.23;;;2.97;;
18265;SDS011;9259;48.194;16.322;2023-04-28T04:30:49;13.13;;;4.40;;
18265;SDS011;9259;48.194;16.322;2023-04-28T04:33:18;7.00;;;2.77;;
18265;SDS011;9259;48.194;16.322;2023-04-28T04:35:47;9.33;;;3.23;;
18265;SDS011;9259;48.194;16.322;2023-04-28T04:38:15;14.63;;;3.10;;
18265;SDS011;9259;48.194;16.322;2023-04-28T04:40:43;9.97;;;2.97;;
18265;SDS011;9259;48.194;16.322;2023-04-28T04:43:10;11.33;;;3.57;;
18265;SDS011;9259;48.194;16.322;2023-04-28T04:45:38;5.90;;;3.00;;
18265;SDS011;9259;48.194;16.322;2023-04-28T04:48:06;5.53;;;2.60;;
18265;SDS011;9259;48.194;16.322;2023-04-28T04:50:34;6.33;;;3.13;;
18265;SDS011;9259;48.194;16.322;2023-04-28T04:53:03;10.03;;;3.50;;
18265;SDS011;9259;48.194;16.322;2023-04-28T04:55:31;7.80;;;2.93;;
18265;SDS011;9259;48.194;16.322;2023-04-28T04:57:59;4.87;;;2.83;;
18265;SDS011;9259;48.194;16.322;2023-04-28T05:00:27;9.37;;;3.03;;
18265;SDS011;9259;48.194;16.322;2023-04-28T05:02:55;8.17;;;2.83;;
18265;SDS011;9259;48.194;16.322;2023-04-28T05:05:23;9.13;;;3.43;;
18265;SDS011;9259;48.194;16.322;2023-04-28T05:07:51;5.70;;;2.57;;
18265;SDS011;9259;48.194;16.322;2023-04-28T05:10:21;3.73;;;2.40;;
18265;SDS011;9259;48.194;16.322;2023-04-28T05:12:50;8.03;;;3.23;;
18265;SDS011;9259;48.194;16.322;2023-04-28T05:15:19;6.57;;;3.27;;
18265;SDS011;9259;48.194;16.322;2023-04-28T05:17:46;5.90;;;2.47;;
18265;SDS011;9259;48.194;16.322;2023-04-28T05:20:15;7.83;;;3.20;;
18265;SDS011;9259;48.194;16.322;2023-04-28T05:22:44;11.17;;;2.80;;
18265;SDS011;9259;48.194;16.322;2023-04-28T05:25:11;7.00;;;3.03;;
18265;SDS011;9259;48.194;16.322;2023-04-28T05:27:41;7.87;;;3.17;;
18265;SDS011;9259;48.194;16.322;2023-04-28T05:30:09;6.77;;;2.93;;
18265;SDS011;9259;48.194;16.322;2023-04-28T05:32:37;8.80;;;3.10;;
18265;SDS011;9259;48.194;16.322;2023-04-28T05:35:06;6.00;;;2.53;;
18265;SDS011;9259;48.194;16.322;2023-04-28T05:37:34;9.47;;;3.23;;
18265;SDS011;9259;48.194;16.322;2023-04-28T05:40:03;7.80;;;3.93;;
18265;SDS011;9259;48.194;16.322;2023-04-28T05:42:32;8.43;;;2.90;;
18265;SDS011;9259;48.194;16.322;2023-04-28T05:45:02;7.23;;;3.17;;
18265;SDS011;9259;48.194;16.322;2023-04-28T05:47:31;5.80;;;3.23;;
18265;SDS011;9259;48.194;16.322;2023-04-28T05:49:59;7.57;;;3.13;;
18265;SDS011;9259;48.194;16.322;2023-04-28T05:52:27;5.27;;;2.83;;
18265;SDS011;9259;48.194;16.322;2023-04-28T05:54:55;7.57;;;2.93;;
18265;SDS011;9259;48.194;16.322;2023-04-28T05:57:23;8.80;;;3.77;;
18265;SDS011;9259;48.194;16.322;2023-04-28T05:59:51;7.97;;;3.53;;
18265;SDS011;9259;48.194;16.322;2023-04-28T06:02:20;8.63;;;3.03;;
18265;SDS011;9259;48.194;16.322;2023-04-28T06:04:48;6.23;;;3.03;;
18265;SDS011;9259;48.194;16.322;2023-04-28T06:07:16;8.10;;;2.97;;
18265;SDS011;9259;48.194;16.322;2023-04-28T06:09:44;11.20;;;3.90;;
18265;SDS011;9259;48.194;16.322;2023-04-28T06:12:12;5.00;;;2.77;;
18265;SDS011;9259;48.194;16.322;2023-04-28T06:14:40;6.83;;;3.13;;
18265;SDS011;9259;48.194;16.322;2023-04-28T06:17:08;6.57;;;2.97;;
18265;SDS011;9259;48.194;16.322;2023-04-28T06:19:37;8.73;;;3.10;;
18265;SDS011;9259;48.194;16.322;2023-04-28T06:22:05;5.70;;;2.87;;
18265;SDS011;9259;48.194;16.322;2023-04-28T06:24:33;8.07;;;3.70;;
18265;SDS011;9259;48.194;16.322;2023-04-28T06:27:01;8.30;;;3.10;;
18265;SDS011;9259;48.194;16.322;2023-04-28T06:29:29;7.43;;;3.03;;
18265;SDS011;9259;48.194;16.322;2023-04-28T06:31:57;7.80;;;2.83;;
18265;SDS011;9259;48.194;16.322;2023-04-28T06:34:25;5.30;;;2.73;;
18265;SDS011;9259;48.194;16.322;2023-04-28T06:36:55;3.17;;;1.57;;
18265;SDS011;9259;48.194;16.322;2023-04-28T06:39:24;7.40;;;2.60;;
18265;SDS011;9259;48.194;16.322;2023-04-28T06:41:52;4.93;;;2.57;;
18265;SDS011;9259;48.194;16.322;2023-04-28T06:44:20;8.03;;;2.97;;
18265;SDS011;9259;48.194;16.322;2023-04-28T06:46:48;5.50;;;2.60;;
18265;SDS011;9259;48.194;16.322;2023-04-28T06:49:16;8.00;;;3.20;;
18265;SDS011;9259;48.194;16.322;2023-04-28T06:51:44;3.20;;;1.87;;
18265;SDS011;9259;48.194;16.322;2023-04-28T06:54:13;4.03;;;2.50;;
18265;SDS011;9259;48.194;16.322;2023-04-28T06:56:41;5.43;;;2.30;;
18265;SDS011;9259;48.194;16.322;2023-04-28T06:59:09;6.67;;;2.57;;
18265;SDS011;9259;48.194;16.322;2023-04-28T07:01:37;5.67;;;2.53;;
18265;SDS011;9259;48.194;16.322;2023-04-28T07:04:05;5.07;;;2.60;;
18265;SDS011;9259;48.194;16.322;2023-04-28T07:06:32;10.37;;;3.37;;
18265;SDS011;9259;48.194;16.322;2023-04-28T07:09:00;6.03;;;2.40;;
18265;SDS011;9259;48.194;16.322;2023-04-28T07:11:30;6.87;;;2.40;;
18265;SDS011;9259;48.194;16.322;2023-04-28T07:13:58;4.70;;;2.17;;
18265;SDS011;9259;48.194;16.322;2023-04-28T07:16:26;5.17;;;2.10;;
18265;SDS011;9259;48.194;16.322;2023-04-28T07:18:54;3.70;;;1.87;;
18265;SDS011;9259;48.194;16.322;2023-04-28T07:21:23;4.40;;;1.63;;
18265;SDS011;9259;48.194;16.322;2023-04-28T07:23:51;3.73;;;2.00;;
18265;SDS011;9259;48.194;16.322;2023-04-28T07:26:21;5.30;;;2.10;;
18265;SDS011;9259;48.194;16.322;2023-04-28T07:28:50;5.03;;;1.80;;
18265;SDS011;9259;48.194;16.322;2023-04-28T07:31:18;5.87;;;2.10;;
18265;SDS011;9259;48.194;16.322;2023-04-28T07:33:46;4.47;;;1.70;;
18265;SDS011;9259;48.194;16.322;2023-04-28T07:36:14;3.43;;;1.83;;
18265;SDS011;9259;48.194;16.322;2023-04-28T07:38:42;6.63;;;1.73;;
18265;SDS011;9259;48.194;16.322;2023-04-28T07:41:10;4.17;;;1.93;;
18265;SDS011;9259;48.194;16.322;2023-04-28T07:43:38;3.17;;;1.43;;
18265;SDS011;9259;48.194;16.322;2023-04-28T07:46:08;4.33;;;2.10;;
18265;SDS011;9259;48.194;16.322;2023-04-28T07:48:36;3.87;;;1.70;;
18265;SDS011;9259;48.194;16.322;2023-04-28T07:51:04;2.97;;;1.67;;
18265;SDS011;9259;48.194;16.322;2023-04-28T07:53:32;4.37;;;2.07;;
18265;SDS011;9259;48.194;16.322;2023-04-28T07:56:00;4.27;;;1.73;;
18265;SDS011;9259;48.194;16.322;2023-04-28T07:58:28;3.10;;;1.70;;
18265;SDS011;9259;48.194;16.322;2023-04-28T08:00:57;5.47;;;1.60;;
18265;SDS011;9259;48.194;16.322;2023-04-28T08:03:26;6.00;;;2.07;;
18265;SDS011;9259;48.194;16.322;2023-04-28T08:05:54;7.30;;;1.83;;
18265;SDS011;9259;48.194;16.322;2023-04-28T08:08:22;3.23;;;1.80;;
18265;SDS011;9259;48.194;16.322;2023-04-28T08:10:50;7.80;;;1.80;;
18265;SDS011;9259;48.194;16.322;2023-04-28T08:13:19;5.00;;;2.00;;
18265;SDS011;9259;48.194;16.322;2023-04-28T08:15:47;5.93;;;2.23;;
18265;SDS011;9259;48.194;16.322;2023-04-28T08:18:15;3.07;;;1.97;;
18265;SDS011;9259;48.194;16.322;2023-04-28T08:20:45;2.63;;;1.70;;
18265;SDS011;9259;48.194;16.322;2023-04-28T08:23:13;1.60;;;1.30;;
18265;SDS011;9259;48.194;16.322;2023-04-28T08:25:41;9.90;;;1.77;;
18265;SDS011;9259;48.194;16.322;2023-04-28T08:28:09;7.53;;;1.83;;
18265;SDS011;9259;48.194;16.322;2023-04-28T08:30:37;4.68;;;1.67;;
18265;SDS011;9259;48.194;16.322;2023-04-28T08:33:04;4.95;;;1.60;;
18265;SDS011;9259;48.194;16.322;2023-04-28T08:35:32;4.10;;;1.17;;
18265;SDS011;9259;48.194;16.322;2023-04-28T08:38:01;2.33;;;1.33;;
18265;SDS011;9259;48.194;16.322;2023-04-28T08:40:29;2.85;;;1.48;;
18265;SDS011;9259;48.194;16.322;2023-04-28T08:42:58;5.57;;;1.83;;
18265;SDS011;9259;48.194;16.322;2023-04-28T08:45:26;3.13;;;1.85;;
18265;SDS011;9259;48.194;16.322;2023-04-28T08:47:57;2.45;;;1.60;;
18265;SDS011;9259;48.194;16.322;2023-04-28T08:50:26;2.72;;;1.55;;
18265;SDS011;9259;48.194;16.322;2023-04-28T08:52:56;3.53;;;1.73;;
18265;SDS011;9259;48.194;16.322;2023-04-28T08:55:26;2.20;;;1.55;;
18265;SDS011;9259;48.194;16.322;2023-04-28T08:57:54;3.33;;;1.52;;
18265;SDS011;9259;48.194;16.322;2023-04-28T09:00:23;3.28;;;1.88;;
18265;SDS011;9259;48.194;16.322;2023-04-28T09:02:51;2.67;;;1.50;;
18265;SDS011;9259;48.194;16.322;2023-04-28T09:05:19;2.42;;;1.58;;
18265;SDS011;9259;48.194;16.322;2023-04-28T09:07:46;2.97;;;1.52;;
18265;SDS011;9259;48.194;16.322;2023-04-28T09:10:17;2.50;;;1.73;;
18265;SDS011;9259;48.194;16.322;2023-04-28T09:12:50;4.60;;;1.50;;
18265;SDS011;9259;48.194;16.322;2023-04-28T09:15:25;5.03;;;1.77;;
18265;SDS011;9259;48.194;16.322;2023-04-28T09:17:55;3.20;;;1.67;;
18265;SDS011;9259;48.194;16.322;2023-04-28T09:20:24;3.63;;;1.75;;
18265;SDS011;9259;48.194;16.322;2023-04-28T09:22:53;3.33;;;1.67;;
18265;SDS011;9259;48.194;16.322;2023-04-28T09:25:23;5.45;;;1.80;;
18265;SDS011;9259;48.194;16.322;2023-04-28T09:27:54;5.10;;;1.90;;
18265;SDS011;9259;48.194;16.322;2023-04-28T09:30:37;3.80;;;1.83;;
18265;SDS011;9259;48.194;16.322;2023-04-28T09:33:06;2.67;;;1.52;;
18265;SDS011;9259;48.194;16.322;2023-04-28T09:35:40;3.30;;;1.67;;
18265;SDS011;9259;48.194;16.322;2023-04-28T09:38:10;3.10;;;1.70;;
18265;SDS011;9259;48.194;16.322;2023-04-28T09:40:54;2.35;;;1.40;;
18265;SDS011;9259;48.194;16.322;2023-04-28T09:43:26;1.38;;;1.10;;
18265;SDS011;9259;48.194;16.322;2023-04-28T09:45:56;4.25;;;1.38;;
18265;SDS011;9259;48.194;16.322;2023-04-28T09:48:26;2.95;;;1.33;;
18265;SDS011;9259;48.194;16.322;2023-04-28T09:50:56;3.08;;;1.67;;
18265;SDS011;9259;48.194;16.322;2023-04-28T09:53:25;2.08;;;1.48;;
18265;SDS011;9259;48.194;16.322;2023-04-28T09:55:54;4.25;;;1.55;;
18265;SDS011;9259;48.194;16.322;2023-04-28T09:58:26;5.55;;;1.63;;
18265;SDS011;9259;48.194;16.322;2023-04-28T10:00:57;2.72;;;1.25;;
18265;SDS011;9259;48.194;16.322;2023-04-28T10:03:27;3.30;;;1.70;;
18265;SDS011;9259;48.194;16.322;2023-04-28T10:05:57;2.97;;;1.55;;
18265;SDS011;9259;48.194;16.322;2023-04-28T10:08:25;3.30;;;1.33;;
18265;SDS011;9259;48.194;16.322;2023-04-28T10:10:54;2.40;;;1.30;;
18265;SDS011;9259;48.194;16.322;2023-04-28T10:13:22;3.13;;;1.48;;
18265;SDS011;9259;48.194;16.322;2023-04-28T10:15:52;2.10;;;1.08;;
18265;SDS011;9259;48.194;16.322;2023-04-28T10:18:22;3.40;;;1.45;;
18265;SDS011;9259;48.194;16.322;2023-04-28T10:20:52;2.75;;;1.25;;
18265;SDS011;9259;48.194;16.322;2023-04-28T10:23:36;2.50;;;1.50;;
18265;SDS011;9259;48.194;16.322;2023-04-28T10:26:14;2.63;;;1.05;;
18265;SDS011;9259;48.194;16.322;2023-04-28T10:28:45;3.38;;;1.45;;
18265;SDS011;9259;48.194;16.322;2023-04-28T10:31:15;5.53;;;1.33;;
18265;SDS011;9259;48.194;16.322;2023-04-28T10:33:47;2.50;;;1.40;;
18265;SDS011;9259;48.194;16.322;2023-04-28T10:39:15;7.85;;;1.27;;
18265;SDS011;9259;48.194;16.322;2023-04-28T10:41:44;1.90;;;1.20;;
18265;SDS011;9259;48.194;16.322;2023-04-28T10:47:09;2.15;;;1.30;;
18265;SDS011;9259;48.194;16.322;2023-04-28T10:52:48;5.18;;;1.20;;
18265;SDS011;9259;48.194;16.322;2023-04-28T10:55:25;1.25;;;0.90;;
18265;SDS011;9259;48.194;16.322;2023-04-28T11:03:58;6.50;;;1.60;;
18265;SDS011;9259;48.194;16.322;2023-04-28T11:06:29;2.58;;;1.52;;
18265;SDS011;9259;48.194;16.322;2023-04-28T11:08:59;4.35;;;1.25;;
18265;SDS011;9259;48.194;16.322;2023-04-28T11:11:29;2.95;;;1.90;;
18265;SDS011;9259;48.194;16.322;2023-04-28T11:16:58;2.72;;;1.15;;
18265;SDS011;9259;48.194;16.322;2023-04-28T11:19:29;3.28;;;1.40;;
18265;SDS011;9259;48.194;16.322;2023-04-28T11:21:58;1.75;;;1.02;;
18265;SDS011;9259;48.194;16.322;2023-04-28T11:24:27;3.22;;;1.40;;
18265;SDS011;9259;48.194;16.322;2023-04-28T11:26:56;3.13;;;1.17;;
18265;SDS011;9259;48.194;16.322;2023-04-28T11:29:30;2.55;;;1.10;;
18265;SDS011;9259;48.194;16.322;2023-04-28T11:31:59;3.83;;;1.42;;
18265;SDS011;9259;48.194;16.322;2023-04-28T11:34:29;4.00;;;1.13;;
18265;SDS011;9259;48.194;16.322;2023-04-28T11:36:58;2.42;;;1.15;;
18265;SDS011;9259;48.194;16.322;2023-04-28T11:39:26;2.42;;;1.20;;
18265;SDS011;9259;48.194;16.322;2023-04-28T11:41:55;3.13;;;1.30;;
18265;SDS011;9259;48.194;16.322;2023-04-28T11:44:25;3.85;;;1.20;;
18265;SDS011;9259;48.194;16.322;2023-04-28T11:46:55;2.38;;;1.55;;
18265;SDS011;9259;48.194;16.322;2023-04-28T11:49:25;3.70;;;1.60;;
18265;SDS011;9259;48.194;16.322;2023-04-28T11:51:56;3.47;;;1.50;;
18265;SDS011;9259;48.194;16.322;2023-04-28T11:54:30;2.17;;;1.40;;
18265;SDS011;9259;48.194;16.322;2023-04-28T11:56:59;2.13;;;1.30;;
18265;SDS011;9259;48.194;16.322;2023-04-28T11:59:29;2.13;;;1.10;;
18265;SDS011;9259;48.194;16.322;2023-04-28T12:01:58;2.38;;;1.55;;
18265;SDS011;9259;48.194;16.322;2023-04-28T12:04:29;2.00;;;1.23;;
18265;SDS011;9259;48.194;16.322;2023-04-28T12:07:02;2.65;;;1.23;;
18265;SDS011;9259;48.194;16.322;2023-04-28T12:09:32;4.22;;;1.40;;
18265;SDS011;9259;48.194;16.322;2023-04-28T12:12:00;1.73;;;1.25;;
18265;SDS011;9259;48.194;16.322;2023-04-28T12:14:30;3.58;;;1.30;;
18265;SDS011;9259;48.194;16.322;2023-04-28T12:17:00;5.07;;;1.30;;
18265;SDS011;9259;48.194;16.322;2023-04-28T12:19:29;2.30;;;1.17;;
18265;SDS011;9259;48.194;16.322;2023-04-28T12:22:03;3.22;;;1.40;;
18265;SDS011;9259;48.194;16.322;2023-04-28T12:24:32;1.33;;;1.02;;
18265;SDS011;9259;48.194;16.322;2023-04-28T12:27:13;2.53;;;1.10;;
18265;SDS011;9259;48.194;16.322;2023-04-28T12:29:45;2.10;;;1.45;;
18265;SDS011;9259;48.194;16.322;2023-04-28T12:32:13;2.72;;;1.00;;
18265;SDS011;9259;48.194;16.322;2023-04-28T12:34:43;3.53;;;1.38;;
18265;SDS011;9259;48.194;16.322;2023-04-28T12:37:13;3.38;;;1.13;;
18265;SDS011;9259;48.194;16.322;2023-04-28T12:39:41;4.13;;;1.30;;
18265;SDS011;9259;48.194;16.322;2023-04-28T12:42:09;2.03;;;1.20;;
18265;SDS011;9259;48.194;16.322;2023-04-28T12:44:37;2.97;;;1.20;;
18265;SDS011;9259;48.194;16.322;2023-04-28T12:47:06;2.10;;;1.33;;
18265;SDS011;9259;48.194;16.322;2023-04-28T12:49:35;2.40;;;1.60;;
18265;SDS011;9259;48.194;16.322;2023-04-28T12:52:03;3.30;;;1.50;;
18265;SDS011;9259;48.194;16.322;2023-04-28T12:54:34;3.90;;;1.55;;
18265;SDS011;9259;48.194;16.322;2023-04-28T12:57:03;2.63;;;1.48;;
18265;SDS011;9259;48.194;16.322;2023-04-28T12:59:31;3.72;;;1.45;;
18265;SDS011;9259;48.194;16.322;2023-04-28T13:01:59;2.55;;;1.35;;
18265;SDS011;9259;48.194;16.322;2023-04-28T13:04:27;3.33;;;1.30;;
18265;SDS011;9259;48.194;16.322;2023-04-28T13:06:54;3.83;;;1.33;;
18265;SDS011;9259;48.194;16.322;2023-04-28T13:09:23;2.72;;;1.25;;
18265;SDS011;9259;48.194;16.322;2023-04-28T13:11:53;1.23;;;1.00;;
18265;SDS011;9259;48.194;16.322;2023-04-28T13:14:21;2.58;;;1.27;;
18265;SDS011;9259;48.194;16.322;2023-04-28T13:16:49;3.90;;;1.40;;
18265;SDS011;9259;48.194;16.322;2023-04-28T13:19:18;3.78;;;1.60;;
18265;SDS011;9259;48.194;16.322;2023-04-28T13:21:47;3.60;;;1.67;;
18265;SDS011;9259;48.194;16.322;2023-04-28T13:24:14;2.25;;;1.50;;
18265;SDS011;9259;48.194;16.322;2023-04-28T13:26:43;3.50;;;1.30;;
18265;SDS011;9259;48.194;16.322;2023-04-28T13:29:13;2.60;;;1.40;;
18265;SDS011;9259;48.194;16.322;2023-04-28T13:31:41;2.95;;;1.35;;
18265;SDS011;9259;48.194;16.322;2023-04-28T13:34:09;6.32;;;1.45;;
18265;SDS011;9259;48.194;16.322;2023-04-28T13:36:40;2.95;;;1.20;;
18265;SDS011;9259;48.194;16.322;2023-04-28T13:39:08;4.70;;;1.67;;
18265;SDS011;9259;48.194;16.322;2023-04-28T13:41:38;3.25;;;1.67;;
18265;SDS011;9259;48.194;16.322;2023-04-28T13:44:06;2.35;;;1.30;;
18265;SDS011;9259;48.194;16.322;2023-04-28T13:46:36;2.15;;;1.50;;
18265;SDS011;9259;48.194;16.322;2023-04-28T13:49:04;2.72;;;1.30;;
18265;SDS011;9259;48.194;16.322;2023-04-28T13:51:32;2.40;;;1.60;;
18265;SDS011;9259;48.194;16.322;2023-04-28T13:54:00;2.63;;;1.55;;
18265;SDS011;9259;48.194;16.322;2023-04-28T13:56:29;2.25;;;1.38;;
18265;SDS011;9259;48.194;16.322;2023-04-28T13:58:57;1.80;;;1.25;;
18265;SDS011;9259;48.194;16.322;2023-04-28T14:01:25;4.70;;;1.20;;
18265;SDS011;9259;48.194;16.322;2023-04-28T14:03:54;2.38;;;1.60;;
18265;SDS011;9259;48.194;16.322;2023-04-28T14:06:22;1.63;;;1.05;;
18265;SDS011;9259;48.194;16.322;2023-04-28T14:08:50;5.88;;;1.55;;
18265;SDS011;9259;48.194;16.322;2023-04-28T14:11:18;6.53;;;2.20;;
18265;SDS011;9259;48.194;16.322;2023-04-28T14:13:47;3.42;;;1.48;;
18265;SDS011;9259;48.194;16.322;2023-04-28T14:16:15;3.25;;;1.60;;
18265;SDS011;9259;48.194;16.322;2023-04-28T14:18:43;1.95;;;1.20;;
18265;SDS011;9259;48.194;16.322;2023-04-28T14:21:12;3.53;;;1.60;;
18265;SDS011;9259;48.194;16.322;2023-04-28T14:23:40;3.53;;;1.80;;
18265;SDS011;9259;48.194;16.322;2023-04-28T14:26:08;2.28;;;1.50;;
18265;SDS011;9259;48.194;16.322;2023-04-28T14:28:36;2.65;;;1.58;;
18265;SDS011;9259;48.194;16.322;2023-04-28T14:31:04;2.28;;;1.50;;
18265;SDS011;9259;48.194;16.322;2023-04-28T14:33:33;7.40;;;1.48;;
18265;SDS011;9259;48.194;16.322;2023-04-28T14:36:01;2.63;;;1.60;;
18265;SDS011;9259;48.194;16.322;2023-04-28T14:38:31;3.83;;;1.55;;
18265;SDS011;9259;48.194;16.322;2023-04-28T14:40:59;3.53;;;2.03;;
18265;SDS011;9259;48.194;16.322;2023-04-28T14:43:27;2.67;;;1.48;;
18265;SDS011;9259;48.194;16.322;2023-04-28T14:45:54;6.95;;;1.98;;
18265;SDS011;9259;48.194;16.322;2023-04-28T14:48:23;3.97;;;1.65;;
18265;SDS011;9259;48.194;16.322;2023-04-28T14:50:51;2.67;;;1.70;;
18265;SDS011;9259;48.194;16.322;2023-04-28T14:53:19;3.95;;;1.95;;
18265;SDS011;9259;48.194;16.322;2023-04-28T14:55:48;2.90;;;1.92;;
18265;SDS011;9259;48.194;16.322;2023-04-28T14:58:16;3.35;;;2.03;;
18265;SDS011;9259;48.194;16.322;2023-04-28T15:00:44;5.55;;;2.17;;
18265;SDS011;9259;48.194;16.322;2023-04-28T15:03:12;5.47;;;1.83;;
18265;SDS011;9259;48.194;16.322;2023-04-28T15:05:40;3.43;;;2.03;;
18265;SDS011;9259;48.194;16.322;2023-04-28T15:08:08;4.13;;;1.90;;
18265;SDS011;9259;48.194;16.322;2023-04-28T15:10:37;2.35;;;1.90;;
18265;SDS011;9259;48.194;16.322;2023-04-28T15:13:07;3.13;;;1.90;;
18265;SDS011;9259;48.194;16.322;2023-04-28T15:15:35;4.60;;;2.13;;